TAP1032 LPPT-LEBL
Flight info
| Callsign | TAP1032 |
|---|---|
| Flight time | 1h 28m |
| Altitude | 38000 |
| Route | ORVED DCT UREDI DCT DIPOL DCT RBO DCT PINAR DCT SEGRE DCT BRITO DCT PISUS DCT PONEN T600 CASPE |
| Aircraft | A20N/M-SDE2E3FGHIRWXY/LB1 |
Departure
| Time | 2026-04-27 02:45 |
|---|---|
| Airport | Lisbon Humberto Delgado Airport (LPPT) |
Arrival
| Time | 2026-04-27 04:13 |
|---|---|
| Airport | Josep Tarradellas Barcelona-El Prat Airport (LEBL) |
| Time | Latitude | Longitude | Altitude | Speed | Heading |
|---|---|---|---|---|---|
| 2026-04-27 02:24 | 38.77429 | -9.13141 | 347 ft | 0 kts | 78° |
| 2026-04-27 02:35 | 38.77428 | -9.13142 | 347 ft | 2 kts | 78° |
| 2026-04-27 02:35 | 38.77425 | -9.13163 | 348 ft | 2 kts | 78° |
| 2026-04-27 02:36 | 38.77422 | -9.13183 | 356 ft | 2 kts | 78° |
| 2026-04-27 02:36 | 38.77419 | -9.13204 | 357 ft | 2 kts | 79° |
| 2026-04-27 02:36 | 38.77415 | -9.13225 | 354 ft | 2 kts | 82° |
| 2026-04-27 02:36 | 38.77415 | -9.13246 | 354 ft | 2 kts | 108° |
| 2026-04-27 02:37 | 38.77421 | -9.13266 | 352 ft | 2 kts | 135° |
| 2026-04-27 02:37 | 38.77435 | -9.13278 | 347 ft | 2 kts | 156° |
| 2026-04-27 02:37 | 38.77451 | -9.13284 | 348 ft | 2 kts | 169° |
| 2026-04-27 02:37 | 38.77466 | -9.13288 | 352 ft | 1 kts | 168° |
| 2026-04-27 02:38 | 38.77468 | -9.13289 | 352 ft | 0 kts | 171° |
| 2026-04-27 02:40 | 38.77454 | -9.13285 | 349 ft | 4 kts | 168° |
| 2026-04-27 02:40 | 38.77413 | -9.13274 | 351 ft | 8 kts | 168° |
| 2026-04-27 02:41 | 38.77349 | -9.13271 | 356 ft | 9 kts | 208° |
| 2026-04-27 02:41 | 38.77318 | -9.13354 | 354 ft | 12 kts | 257° |
| 2026-04-27 02:41 | 38.77299 | -9.13471 | 349 ft | 15 kts | 259° |
| 2026-04-27 02:41 | 38.77276 | -9.13611 | 352 ft | 17 kts | 257° |
| 2026-04-27 02:42 | 38.77252 | -9.13763 | 348 ft | 15 kts | 258° |
| 2026-04-27 02:42 | 38.77204 | -9.13859 | 351 ft | 15 kts | 206° |
| 2026-04-27 02:42 | 38.77101 | -9.13913 | 351 ft | 18 kts | 202° |
| 2026-04-27 02:42 | 38.76979 | -9.13978 | 354 ft | 20 kts | 203° |
| 2026-04-27 02:43 | 38.76890 | -9.14026 | 347 ft | 22 kts | 202° |
| 2026-04-27 02:43 | 38.76742 | -9.14105 | 348 ft | 24 kts | 202° |
| 2026-04-27 02:43 | 38.76615 | -9.14175 | 353 ft | 14 kts | 207° |
| 2026-04-27 02:43 | 38.76622 | -9.14327 | 340 ft | 15 kts | 294° |
| 2026-04-27 02:44 | 38.76662 | -9.14368 | 339 ft | 10 kts | 352° |
| 2026-04-27 02:44 | 38.76698 | -9.14357 | 337 ft | 0 kts | 24° |
| 2026-04-27 02:44 | 38.76769 | -9.14319 | 347 ft | 46 kts | 23° |
| 2026-04-27 02:45 | 38.77346 | -9.14015 | 352 ft | 129 kts | 22° |
| 2026-04-27 02:45 | 38.78343 | -9.13456 | 596 ft | 172 kts | 22° |
| 2026-04-27 02:45 | 38.79447 | -9.12810 | 1490 ft | 176 kts | 25° |
| 2026-04-27 02:45 | 38.80567 | -9.12144 | 2481 ft | 182 kts | 30° |
| 2026-04-27 02:46 | 38.81753 | -9.11382 | 2998 ft | 208 kts | 31° |
| 2026-04-27 02:46 | 38.83097 | -9.10418 | 3523 ft | 234 kts | 34° |
| 2026-04-27 02:46 | 38.84545 | -9.09262 | 4144 ft | 255 kts | 34° |
| 2026-04-27 02:46 | 38.86088 | -9.08035 | 5013 ft | 266 kts | 32° |
| 2026-04-27 02:47 | 38.87713 | -9.06838 | 5951 ft | 273 kts | 31° |
| 2026-04-27 02:47 | 38.89358 | -9.05605 | 6949 ft | 273 kts | 38° |
| 2026-04-27 02:47 | 38.90591 | -9.03807 | 8071 ft | 268 kts | 64° |
| 2026-04-27 02:47 | 38.91255 | -9.01559 | 9013 ft | 274 kts | 71° |
| 2026-04-27 02:48 | 38.91959 | -8.99250 | 9934 ft | 279 kts | 67° |
| 2026-04-27 02:48 | 38.92767 | -8.96933 | 10611 ft | 294 kts | 65° |
| 2026-04-27 02:48 | 38.93678 | -8.94462 | 10949 ft | 319 kts | 65° |
| 2026-04-27 02:48 | 38.94673 | -8.91816 | 11444 ft | 335 kts | 64° |
| 2026-04-27 02:49 | 38.95697 | -8.89101 | 12287 ft | 340 kts | 64° |
| 2026-04-27 02:49 | 38.96732 | -8.86343 | 13130 ft | 345 kts | 64° |
| 2026-04-27 02:49 | 38.97780 | -8.83538 | 13940 ft | 351 kts | 64° |
| 2026-04-27 02:49 | 38.98842 | -8.80688 | 14694 ft | 356 kts | 64° |
| 2026-04-27 02:50 | 38.99918 | -8.77796 | 15424 ft | 361 kts | 65° |
| 2026-04-27 02:50 | 39.01007 | -8.74861 | 16142 ft | 366 kts | 65° |
| 2026-04-27 02:50 | 39.02097 | -8.71923 | 16813 ft | 372 kts | 65° |
| 2026-04-27 02:50 | 39.03216 | -8.68900 | 17500 ft | 377 kts | 65° |
| 2026-04-27 02:51 | 39.04352 | -8.65828 | 18165 ft | 383 kts | 65° |
| 2026-04-27 02:51 | 39.05504 | -8.62712 | 18782 ft | 388 kts | 65° |
| 2026-04-27 02:51 | 39.06667 | -8.59562 | 19416 ft | 391 kts | 65° |
| 2026-04-27 02:51 | 39.07842 | -8.56377 | 20054 ft | 395 kts | 65° |
| 2026-04-27 02:52 | 39.09027 | -8.53160 | 20660 ft | 399 kts | 65° |
| 2026-04-27 02:52 | 39.10225 | -8.49909 | 21267 ft | 404 kts | 65° |
| 2026-04-27 02:52 | 39.11433 | -8.46624 | 21860 ft | 408 kts | 65° |
| 2026-04-27 02:52 | 39.12654 | -8.43298 | 22455 ft | 412 kts | 65° |
| 2026-04-27 02:53 | 39.13886 | -8.39938 | 23040 ft | 417 kts | 65° |
| 2026-04-27 02:53 | 39.15129 | -8.36545 | 23631 ft | 420 kts | 65° |
| 2026-04-27 02:53 | 39.16365 | -8.33171 | 24116 ft | 424 kts | 65° |
| 2026-04-27 02:53 | 39.17624 | -8.29725 | 24609 ft | 427 kts | 65° |
| 2026-04-27 02:54 | 39.18894 | -8.26247 | 25083 ft | 430 kts | 65° |
| 2026-04-27 02:54 | 39.20173 | -8.22740 | 25570 ft | 434 kts | 65° |
| 2026-04-27 02:54 | 39.21462 | -8.19202 | 26036 ft | 437 kts | 65° |
| 2026-04-27 02:54 | 39.22757 | -8.15643 | 26486 ft | 440 kts | 65° |
| 2026-04-27 02:55 | 39.24064 | -8.12050 | 26925 ft | 444 kts | 65° |
| 2026-04-27 02:55 | 39.25369 | -8.08455 | 27362 ft | 447 kts | 65° |
| 2026-04-27 02:55 | 39.26696 | -8.04794 | 27783 ft | 450 kts | 65° |
| 2026-04-27 02:55 | 39.27991 | -8.01101 | 28192 ft | 453 kts | 68° |
| 2026-04-27 02:56 | 39.29097 | -7.97276 | 28578 ft | 456 kts | 70° |
| 2026-04-27 02:56 | 39.30208 | -7.93427 | 28979 ft | 459 kts | 69° |
| 2026-04-27 02:56 | 39.31320 | -7.89587 | 29348 ft | 462 kts | 69° |
| 2026-04-27 02:56 | 39.32448 | -7.85688 | 29713 ft | 465 kts | 69° |
| 2026-04-27 02:57 | 39.33596 | -7.81710 | 30085 ft | 468 kts | 69° |
| 2026-04-27 02:57 | 39.34734 | -7.77760 | 30411 ft | 471 kts | 70° |
| 2026-04-27 02:57 | 39.35862 | -7.73835 | 30739 ft | 473 kts | 69° |
| 2026-04-27 02:57 | 39.37007 | -7.69846 | 31073 ft | 475 kts | 70° |
| 2026-04-27 02:58 | 39.38167 | -7.65848 | 31447 ft | 476 kts | 67° |
| 2026-04-27 02:58 | 39.39572 | -7.61980 | 31866 ft | 475 kts | 63° |
| 2026-04-27 02:58 | 39.41054 | -7.58164 | 32296 ft | 474 kts | 63° |
| 2026-04-27 02:58 | 39.42525 | -7.54354 | 32720 ft | 473 kts | 63° |
| 2026-04-27 02:59 | 39.43991 | -7.50545 | 33130 ft | 473 kts | 63° |
| 2026-04-27 02:59 | 39.45432 | -7.46794 | 33523 ft | 472 kts | 63° |
| 2026-04-27 02:59 | 39.46914 | -7.42931 | 33936 ft | 471 kts | 63° |
| 2026-04-27 02:59 | 39.48371 | -7.39130 | 34284 ft | 471 kts | 63° |
| 2026-04-27 03:00 | 39.49825 | -7.35334 | 34618 ft | 470 kts | 63° |
| 2026-04-27 03:00 | 39.51272 | -7.31549 | 34940 ft | 469 kts | 63° |
| 2026-04-27 03:00 | 39.52720 | -7.27758 | 35256 ft | 469 kts | 63° |
| 2026-04-27 03:00 | 39.54165 | -7.23973 | 35555 ft | 468 kts | 63° |
| 2026-04-27 03:01 | 39.55603 | -7.20197 | 35842 ft | 467 kts | 63° |
| 2026-04-27 03:01 | 39.57040 | -7.16422 | 36139 ft | 467 kts | 63° |
| 2026-04-27 03:01 | 39.58476 | -7.12644 | 36420 ft | 466 kts | 63° |
| 2026-04-27 03:01 | 39.59905 | -7.08878 | 36710 ft | 465 kts | 63° |
| 2026-04-27 03:02 | 39.61333 | -7.05111 | 36976 ft | 465 kts | 63° |
| 2026-04-27 03:02 | 39.62755 | -7.01355 | 37233 ft | 464 kts | 63° |
| 2026-04-27 03:02 | 39.64175 | -6.97600 | 37495 ft | 463 kts | 63° |
| 2026-04-27 03:02 | 39.65593 | -6.93846 | 37741 ft | 463 kts | 63° |
| 2026-04-27 03:03 | 39.66988 | -6.90146 | 37981 ft | 462 kts | 64° |
| 2026-04-27 03:03 | 39.69812 | -6.82645 | 38053 ft | 461 kts | 64° |
| 2026-04-27 03:04 | 39.72619 | -6.75167 | 38054 ft | 461 kts | 64° |
| 2026-04-27 03:04 | 39.75430 | -6.67665 | 38060 ft | 461 kts | 64° |
| 2026-04-27 03:05 | 39.78231 | -6.60167 | 38066 ft | 461 kts | 64° |
| 2026-04-27 03:05 | 39.81021 | -6.52681 | 38057 ft | 459 kts | 64° |
| 2026-04-27 03:06 | 39.83799 | -6.45209 | 38052 ft | 458 kts | 64° |
| 2026-04-27 03:06 | 39.86518 | -6.37714 | 38039 ft | 457 kts | 67° |
| 2026-04-27 03:07 | 39.89035 | -6.30117 | 38045 ft | 457 kts | 66° |
| 2026-04-27 03:07 | 39.91555 | -6.22585 | 38047 ft | 456 kts | 66° |
| 2026-04-27 03:08 | 39.94077 | -6.15000 | 38050 ft | 456 kts | 66° |
| 2026-04-27 03:08 | 39.96592 | -6.07402 | 38051 ft | 456 kts | 66° |
| 2026-04-27 03:09 | 39.99105 | -5.99789 | 38054 ft | 457 kts | 66° |
| 2026-04-27 03:09 | 40.01614 | -5.92167 | 38062 ft | 457 kts | 66° |
| 2026-04-27 03:10 | 40.04124 | -5.84525 | 38072 ft | 458 kts | 66° |
| 2026-04-27 03:10 | 40.06630 | -5.76867 | 38084 ft | 459 kts | 66° |
| 2026-04-27 03:11 | 40.09136 | -5.69191 | 38095 ft | 460 kts | 66° |
| 2026-04-27 03:11 | 40.11627 | -5.61543 | 38104 ft | 461 kts | 66° |
| 2026-04-27 03:12 | 40.14137 | -5.53812 | 38115 ft | 462 kts | 66° |
| 2026-04-27 03:12 | 40.16645 | -5.46067 | 38118 ft | 462 kts | 66° |
| 2026-04-27 03:13 | 40.19136 | -5.38350 | 38106 ft | 460 kts | 66° |
| 2026-04-27 03:13 | 40.21619 | -5.30641 | 38113 ft | 460 kts | 66° |
| 2026-04-27 03:14 | 40.24097 | -5.22922 | 38111 ft | 460 kts | 67° |
| 2026-04-27 03:14 | 40.26554 | -5.15246 | 38120 ft | 460 kts | 67° |
| 2026-04-27 03:15 | 40.29021 | -5.07518 | 38116 ft | 459 kts | 67° |
| 2026-04-27 03:15 | 40.31482 | -4.99789 | 38119 ft | 459 kts | 67° |
| 2026-04-27 03:16 | 40.33939 | -4.92052 | 38129 ft | 460 kts | 67° |
| 2026-04-27 03:16 | 40.36392 | -4.84305 | 38132 ft | 459 kts | 67° |
| 2026-04-27 03:17 | 40.38837 | -4.76560 | 38139 ft | 459 kts | 67° |
| 2026-04-27 03:17 | 40.41259 | -4.68871 | 38141 ft | 459 kts | 67° |
| 2026-04-27 03:18 | 40.43688 | -4.61131 | 38142 ft | 459 kts | 67° |
| 2026-04-27 03:18 | 40.46114 | -4.53377 | 38144 ft | 458 kts | 67° |
| 2026-04-27 03:19 | 40.48532 | -4.45629 | 38145 ft | 458 kts | 67° |
| 2026-04-27 03:19 | 40.50942 | -4.37886 | 38147 ft | 458 kts | 67° |
| 2026-04-27 03:20 | 40.53346 | -4.30138 | 38148 ft | 458 kts | 67° |
| 2026-04-27 03:20 | 40.55747 | -4.22378 | 38142 ft | 458 kts | 67° |
| 2026-04-27 03:21 | 40.58142 | -4.14614 | 38142 ft | 458 kts | 67° |
| 2026-04-27 03:21 | 40.60528 | -4.06858 | 38140 ft | 457 kts | 67° |
| 2026-04-27 03:22 | 40.62909 | -3.99095 | 38142 ft | 457 kts | 67° |
| 2026-04-27 03:22 | 40.65273 | -3.91365 | 38140 ft | 458 kts | 67° |
| 2026-04-27 03:23 | 40.67646 | -3.83584 | 38140 ft | 458 kts | 67° |
| 2026-04-27 03:23 | 40.70013 | -3.75801 | 38137 ft | 458 kts | 67° |
| 2026-04-27 03:24 | 40.72380 | -3.67994 | 38142 ft | 458 kts | 67° |
| 2026-04-27 03:24 | 40.74740 | -3.60187 | 38143 ft | 458 kts | 68° |
| 2026-04-27 03:25 | 40.77096 | -3.52374 | 38147 ft | 458 kts | 68° |
| 2026-04-27 03:25 | 40.79449 | -3.44545 | 38149 ft | 459 kts | 68° |
| 2026-04-27 03:26 | 40.81798 | -3.36706 | 38148 ft | 459 kts | 68° |
| 2026-04-27 03:26 | 40.84139 | -3.28868 | 38157 ft | 459 kts | 68° |
| 2026-04-27 03:27 | 40.86146 | -3.20865 | 38153 ft | 459 kts | 75° |
| 2026-04-27 03:27 | 40.87734 | -3.12750 | 38155 ft | 459 kts | 75° |
| 2026-04-27 03:28 | 40.89355 | -3.04567 | 38160 ft | 459 kts | 75° |
| 2026-04-27 03:28 | 40.90963 | -2.96387 | 38156 ft | 459 kts | 75° |
| 2026-04-27 03:29 | 40.92560 | -2.88211 | 38156 ft | 459 kts | 75° |
| 2026-04-27 03:29 | 40.94151 | -2.80030 | 38158 ft | 459 kts | 75° |
| 2026-04-27 03:30 | 40.95736 | -2.71845 | 38160 ft | 459 kts | 75° |
| 2026-04-27 03:30 | 40.97314 | -2.63666 | 38158 ft | 459 kts | 75° |
| 2026-04-27 03:31 | 40.98886 | -2.55479 | 38158 ft | 458 kts | 75° |
| 2026-04-27 03:31 | 41.00447 | -2.47297 | 38151 ft | 458 kts | 75° |
| 2026-04-27 03:32 | 41.01989 | -2.39182 | 38150 ft | 457 kts | 75° |
| 2026-04-27 03:32 | 41.03538 | -2.31017 | 38159 ft | 457 kts | 75° |
| 2026-04-27 03:33 | 41.04833 | -2.24176 | 38155 ft | 457 kts | 75° |
| 2026-04-27 03:33 | 41.06372 | -2.16014 | 38157 ft | 456 kts | 75° |
| 2026-04-27 03:34 | 41.07902 | -2.07857 | 38155 ft | 456 kts | 75° |
| 2026-04-27 03:34 | 41.09417 | -1.99737 | 38155 ft | 455 kts | 76° |
| 2026-04-27 03:35 | 41.10930 | -1.91585 | 38157 ft | 455 kts | 76° |
| 2026-04-27 03:35 | 41.12436 | -1.83437 | 38160 ft | 455 kts | 76° |
| 2026-04-27 03:36 | 41.13935 | -1.75296 | 38159 ft | 454 kts | 76° |
| 2026-04-27 03:36 | 41.15430 | -1.67141 | 38160 ft | 454 kts | 76° |
| 2026-04-27 03:37 | 41.16915 | -1.59000 | 38157 ft | 454 kts | 76° |
| 2026-04-27 03:37 | 41.18397 | -1.50848 | 38162 ft | 454 kts | 76° |
| 2026-04-27 03:38 | 41.19863 | -1.42745 | 38166 ft | 454 kts | 76° |
| 2026-04-27 03:38 | 41.21333 | -1.34592 | 38165 ft | 453 kts | 76° |
| 2026-04-27 03:39 | 41.22797 | -1.26445 | 38150 ft | 453 kts | 76° |
| 2026-04-27 03:39 | 41.24255 | -1.18290 | 38140 ft | 453 kts | 76° |
| 2026-04-27 03:40 | 41.25704 | -1.10146 | 38146 ft | 453 kts | 76° |
| 2026-04-27 03:40 | 41.27148 | -1.02001 | 38140 ft | 452 kts | 76° |
| 2026-04-27 03:41 | 41.28584 | -0.93858 | 38137 ft | 452 kts | 76° |
| 2026-04-27 03:41 | 41.30014 | -0.85719 | 38128 ft | 452 kts | 76° |
| 2026-04-27 03:42 | 41.31436 | -0.77585 | 38129 ft | 451 kts | 76° |
| 2026-04-27 03:42 | 41.32854 | -0.69440 | 38125 ft | 451 kts | 76° |
| 2026-04-27 03:43 | 41.34233 | -0.61355 | 38119 ft | 451 kts | 78° |
| 2026-04-27 03:43 | 41.34817 | -0.53058 | 38120 ft | 451 kts | 90° |
| 2026-04-27 03:44 | 41.34262 | -0.44745 | 38119 ft | 452 kts | 98° |
| 2026-04-27 03:44 | 41.33329 | -0.36467 | 38115 ft | 452 kts | 98° |
| 2026-04-27 03:45 | 41.32404 | -0.28184 | 38119 ft | 452 kts | 98° |
| 2026-04-27 03:45 | 41.31466 | -0.19912 | 38118 ft | 452 kts | 98° |
| 2026-04-27 03:46 | 41.30519 | -0.11643 | 38121 ft | 452 kts | 98° |
| 2026-04-27 03:46 | 41.29572 | -0.03427 | 38046 ft | 453 kts | 98° |
| 2026-04-27 03:46 | 41.29092 | 0.00718 | 37735 ft | 453 kts | 98° |
| 2026-04-27 03:47 | 41.28609 | 0.04873 | 37056 ft | 456 kts | 98° |
| 2026-04-27 03:47 | 41.28123 | 0.09042 | 36255 ft | 458 kts | 98° |
| 2026-04-27 03:47 | 41.27632 | 0.13243 | 35413 ft | 461 kts | 98° |
| 2026-04-27 03:47 | 41.27330 | 0.17478 | 34705 ft | 460 kts | 90° |
| 2026-04-27 03:48 | 41.27504 | 0.21724 | 33936 ft | 459 kts | 82° |
| 2026-04-27 03:48 | 41.28133 | 0.25865 | 33147 ft | 457 kts | 73° |
| 2026-04-27 03:48 | 41.29036 | 0.29922 | 32350 ft | 457 kts | 73° |
| 2026-04-27 03:48 | 41.29932 | 0.33974 | 31531 ft | 457 kts | 73° |
| 2026-04-27 03:49 | 41.30825 | 0.38044 | 30680 ft | 458 kts | 73° |
| 2026-04-27 03:49 | 41.31715 | 0.42121 | 29840 ft | 459 kts | 73° |
| 2026-04-27 03:49 | 41.32596 | 0.46170 | 29265 ft | 451 kts | 74° |
| 2026-04-27 03:49 | 41.33456 | 0.50133 | 28846 ft | 442 kts | 74° |
| 2026-04-27 03:50 | 41.34303 | 0.54036 | 28257 ft | 436 kts | 73° |
| 2026-04-27 03:50 | 41.35127 | 0.57843 | 27691 ft | 431 kts | 73° |
| 2026-04-27 03:50 | 41.35953 | 0.61662 | 27124 ft | 427 kts | 73° |
| 2026-04-27 03:50 | 41.36768 | 0.65438 | 26558 ft | 423 kts | 73° |
| 2026-04-27 03:51 | 41.37577 | 0.69188 | 26002 ft | 419 kts | 73° |
| 2026-04-27 03:51 | 41.38377 | 0.72907 | 25445 ft | 416 kts | 73° |
| 2026-04-27 03:51 | 41.39169 | 0.76596 | 24883 ft | 413 kts | 73° |
| 2026-04-27 03:51 | 41.39956 | 0.80269 | 24295 ft | 412 kts | 73° |
| 2026-04-27 03:52 | 41.40739 | 0.83924 | 23771 ft | 409 kts | 73° |
| 2026-04-27 03:52 | 41.41518 | 0.87570 | 23163 ft | 407 kts | 73° |
| 2026-04-27 03:52 | 41.42286 | 0.91172 | 22623 ft | 402 kts | 73° |
| 2026-04-27 03:52 | 41.43045 | 0.94736 | 22074 ft | 398 kts | 73° |
| 2026-04-27 03:53 | 41.43797 | 0.98273 | 21531 ft | 395 kts | 73° |
| 2026-04-27 03:53 | 41.44543 | 1.01786 | 20978 ft | 392 kts | 73° |
| 2026-04-27 03:53 | 41.45280 | 1.05267 | 20442 ft | 389 kts | 74° |
| 2026-04-27 03:53 | 41.46012 | 1.08724 | 19940 ft | 386 kts | 74° |
| 2026-04-27 03:54 | 41.46742 | 1.12182 | 19559 ft | 392 kts | 74° |
| 2026-04-27 03:54 | 41.47484 | 1.15700 | 19158 ft | 395 kts | 74° |
| 2026-04-27 03:54 | 41.48222 | 1.19210 | 18752 ft | 390 kts | 74° |
| 2026-04-27 03:54 | 41.48948 | 1.22666 | 18335 ft | 385 kts | 74° |
| 2026-04-27 03:55 | 41.49668 | 1.26100 | 17922 ft | 384 kts | 74° |
| 2026-04-27 03:55 | 41.50384 | 1.29517 | 17529 ft | 382 kts | 73° |
| 2026-04-27 03:55 | 41.51096 | 1.32921 | 17134 ft | 378 kts | 73° |
| 2026-04-27 03:55 | 41.51799 | 1.36287 | 16749 ft | 375 kts | 73° |
| 2026-04-27 03:56 | 41.52497 | 1.39631 | 16356 ft | 372 kts | 73° |
| 2026-04-27 03:56 | 41.53179 | 1.42906 | 15981 ft | 370 kts | 73° |
| 2026-04-27 03:56 | 41.53865 | 1.46207 | 15604 ft | 367 kts | 74° |
| 2026-04-27 03:56 | 41.54463 | 1.49506 | 15222 ft | 365 kts | 79° |
| 2026-04-27 03:57 | 41.54721 | 1.52862 | 14802 ft | 363 kts | 88° |
| 2026-04-27 03:57 | 41.54735 | 1.56220 | 14370 ft | 360 kts | 89° |
| 2026-04-27 03:57 | 41.54753 | 1.59548 | 14022 ft | 355 kts | 89° |
| 2026-04-27 03:57 | 41.54777 | 1.62787 | 13890 ft | 342 kts | 89° |
| 2026-04-27 03:58 | 41.54800 | 1.65898 | 13761 ft | 329 kts | 89° |
| 2026-04-27 03:58 | 41.54821 | 1.68888 | 13611 ft | 317 kts | 89° |
| 2026-04-27 03:58 | 41.54840 | 1.71793 | 13117 ft | 311 kts | 89° |
| 2026-04-27 03:58 | 41.54859 | 1.74675 | 12488 ft | 308 kts | 89° |
| 2026-04-27 03:59 | 41.54876 | 1.77521 | 11894 ft | 305 kts | 89° |
| 2026-04-27 03:59 | 41.54892 | 1.80343 | 11319 ft | 303 kts | 89° |
| 2026-04-27 03:59 | 41.54908 | 1.83146 | 10879 ft | 301 kts | 89° |
| 2026-04-27 03:59 | 41.54921 | 1.85930 | 10532 ft | 298 kts | 89° |
| 2026-04-27 04:00 | 41.54916 | 1.88687 | 10185 ft | 296 kts | 92° |
| 2026-04-27 04:00 | 41.54641 | 1.91390 | 9887 ft | 291 kts | 100° |
| 2026-04-27 04:00 | 41.54272 | 1.94038 | 9612 ft | 292 kts | 99° |
| 2026-04-27 04:00 | 41.53912 | 1.96702 | 9339 ft | 290 kts | 99° |
| 2026-04-27 04:01 | 41.53556 | 1.99342 | 9071 ft | 289 kts | 99° |
| 2026-04-27 04:01 | 41.53206 | 2.01946 | 8800 ft | 287 kts | 99° |
| 2026-04-27 04:01 | 41.52853 | 2.04564 | 8533 ft | 287 kts | 99° |
| 2026-04-27 04:01 | 41.52501 | 2.07173 | 8261 ft | 285 kts | 99° |
| 2026-04-27 04:02 | 41.52149 | 2.09777 | 7995 ft | 284 kts | 98° |
| 2026-04-27 04:02 | 41.52008 | 2.12383 | 7742 ft | 280 kts | 87° |
| 2026-04-27 04:02 | 41.52098 | 2.14932 | 7661 ft | 270 kts | 86° |
| 2026-04-27 04:02 | 41.52171 | 2.17369 | 7509 ft | 256 kts | 87° |
| 2026-04-27 04:03 | 41.52236 | 2.19712 | 7123 ft | 251 kts | 87° |
| 2026-04-27 04:03 | 41.52298 | 2.22028 | 6722 ft | 249 kts | 87° |
| 2026-04-27 04:03 | 41.52216 | 2.24321 | 6399 ft | 247 kts | 105° |
| 2026-04-27 04:03 | 41.51385 | 2.26275 | 6158 ft | 242 kts | 136° |
| 2026-04-27 04:04 | 41.49966 | 2.27446 | 5933 ft | 244 kts | 155° |
| 2026-04-27 04:04 | 41.48414 | 2.28352 | 5701 ft | 242 kts | 157° |
| 2026-04-27 04:04 | 41.46936 | 2.29314 | 5481 ft | 238 kts | 142° |
| 2026-04-27 04:04 | 41.45908 | 2.31049 | 5262 ft | 239 kts | 111° |
| 2026-04-27 04:05 | 41.45705 | 2.33212 | 5036 ft | 237 kts | 80° |
| 2026-04-27 04:05 | 41.46261 | 2.35243 | 4830 ft | 238 kts | 64° |
| 2026-04-27 04:05 | 41.46979 | 2.37167 | 4679 ft | 225 kts | 63° |
| 2026-04-27 04:05 | 41.47673 | 2.39004 | 4388 ft | 218 kts | 64° |
| 2026-04-27 04:06 | 41.48177 | 2.40879 | 4073 ft | 218 kts | 87° |
| 2026-04-27 04:06 | 41.47860 | 2.42830 | 3899 ft | 219 kts | 121° |
| 2026-04-27 04:06 | 41.46767 | 2.44225 | 3797 ft | 221 kts | 154° |
| 2026-04-27 04:07 | 41.43836 | 2.43917 | 3554 ft | 221 kts | 205° |
| 2026-04-27 04:07 | 41.42493 | 2.42946 | 3433 ft | 220 kts | 217° |
| 2026-04-27 04:07 | 41.41435 | 2.41491 | 3313 ft | 220 kts | 235° |
| 2026-04-27 04:07 | 41.40654 | 2.39730 | 3030 ft | 222 kts | 244° |
| 2026-04-27 04:08 | 41.39993 | 2.37868 | 2745 ft | 222 kts | 246° |
| 2026-04-27 04:08 | 41.39360 | 2.36025 | 2604 ft | 216 kts | 246° |
| 2026-04-27 04:08 | 41.38738 | 2.34215 | 2383 ft | 214 kts | 246° |
| 2026-04-27 04:08 | 41.38128 | 2.32440 | 2307 ft | 214 kts | 246° |
| 2026-04-27 04:09 | 41.37506 | 2.30629 | 2304 ft | 214 kts | 246° |
| 2026-04-27 04:09 | 41.36898 | 2.28855 | 2302 ft | 211 kts | 246° |
| 2026-04-27 04:09 | 41.36310 | 2.27142 | 2291 ft | 196 kts | 246° |
| 2026-04-27 04:09 | 41.35756 | 2.25528 | 2298 ft | 194 kts | 246° |
| 2026-04-27 04:10 | 41.35202 | 2.23910 | 2256 ft | 185 kts | 246° |
| 2026-04-27 04:10 | 41.34692 | 2.22422 | 2014 ft | 171 kts | 246° |
| 2026-04-27 04:10 | 41.34220 | 2.21045 | 1782 ft | 155 kts | 246° |
| 2026-04-27 04:10 | 41.33797 | 2.19808 | 1567 ft | 140 kts | 246° |
| 2026-04-27 04:11 | 41.33412 | 2.18683 | 1376 ft | 130 kts | 246° |
| 2026-04-27 04:11 | 41.33033 | 2.17574 | 1208 ft | 132 kts | 246° |
| 2026-04-27 04:11 | 41.32656 | 2.16472 | 1030 ft | 130 kts | 246° |
| 2026-04-27 04:11 | 41.32283 | 2.15380 | 845 ft | 130 kts | 246° |
| 2026-04-27 04:12 | 41.31911 | 2.14290 | 701 ft | 129 kts | 245° |
| 2026-04-27 04:12 | 41.31541 | 2.13206 | 506 ft | 127 kts | 247° |
| 2026-04-27 04:12 | 41.31172 | 2.12135 | 335 ft | 127 kts | 245° |
| 2026-04-27 04:12 | 41.30799 | 2.11074 | 164 ft | 127 kts | 253° |
| 2026-04-27 04:13 | 41.30435 | 2.09986 | 50 ft | 128 kts | 251° |
| 2026-04-27 04:13 | 41.30101 | 2.08987 | 17 ft | 100 kts | 245° |
| 2026-04-27 04:13 | 41.29850 | 2.08267 | 22 ft | 69 kts | 245° |
| 2026-04-27 04:13 | 41.29748 | 2.07866 | 16 ft | 39 kts | 262° |
| 2026-04-27 04:14 | 41.29794 | 2.07620 | 15 ft | 22 kts | 324° |
| 2026-04-27 04:14 | 41.29919 | 2.07545 | 13 ft | 12 kts | 334° |
| 2026-04-27 04:14 | 41.29970 | 2.07536 | 14 ft | 4 kts | 13° |
| 2026-04-27 04:14 | 41.30022 | 2.07537 | 14 ft | 3 kts | 348° |
| 2026-04-27 04:15 | 41.30055 | 2.07517 | 14 ft | 6 kts | 335° |
| 2026-04-27 04:15 | 41.30074 | 2.07506 | 15 ft | 0 kts | 336° |